Time;durP1;ratioP1;P1;durP2;ratioP2;P2;SDS_P1;SDS_P2;PMS_P1;PMS_P2;Temp;Humidity;BMP_temperature;BMP_pressure;BME280_temperature;BME280_humidity;BME280_pressure;Samples;Min_cycle;Max_cycle;Signal;HPM_P1;HPM_P2
2020/12/21 00:00:49;;;;;;;39.53;19.02;;;;;;;2.92;75.83;101218.75;5032217;28;20523;-78
2020/12/21 00:03:15;;;;;;;38.08;18.55;;;;;;;2.95;75.83;101228.28;5033125;28;20472;-78
2020/12/21 00:05:41;;;;;;;46.78;18.88;;;;;;;2.99;75.56;101225.72;5032432;28;20157;-79
2020/12/21 00:08:09;;;;;;;37.95;19.13;;;;;;;3.03;75.53;101229.19;5032796;28;20049;-79
2020/12/21 00:10:36;;;;;;;40.13;19.10;;;;;;;3.06;75.56;101226.63;5034311;28;20050;-79
2020/12/21 00:13:02;;;;;;;39.17;18.95;;;;;;;3.06;75.38;101229.22;5032070;28;20132;-78
2020/12/21 00:15:28;;;;;;;43.47;19.50;;;;;;;3.03;75.45;101229.19;5031719;28;20045;-78
2020/12/21 00:17:54;;;;;;;36.10;16.50;;;;;;;3.02;75.64;101222.28;5031266;28;20045;-78
2020/12/21 00:20:21;;;;;;;42.40;17.98;;;;;;;3.01;75.50;101225.72;5031643;28;20049;-77
2020/12/21 00:22:47;;;;;;;37.45;17.48;;;;;;;3.01;75.53;101215.38;5031373;28;20049;-77
2020/12/21 00:25:13;;;;;;;43.83;19.88;;;;;;;3.03;75.52;101218.84;5033906;28;20050;-78
2020/12/21 00:27:39;;;;;;;39.15;18.50;;;;;;;3.07;75.57;101215.41;5031220;28;20311;-78
2020/12/21 00:30:06;;;;;;;32.38;16.60;;;;;;;3.11;75.38;101214.56;5031538;28;20048;-78
2020/12/21 00:32:33;;;;;;;45.00;20.05;;;;;;;3.11;75.43;101201.59;5031321;28;20053;-77
2020/12/21 00:34:59;;;;;;;43.30;20.00;;;;;;;3.13;75.32;101206.84;5031082;28;20053;-77
2020/12/21 00:37:25;;;;;;;45.17;17.92;;;;;;;3.13;75.25;101210.28;5031454;28;20140;-77
2020/12/21 00:39:51;;;;;;;45.17;19.85;;;;;;;3.14;75.39;101209.44;5031353;28;20083;-77
2020/12/21 00:42:19;;;;;;;44.67;19.10;;;;;;;3.14;75.37;101208.56;5031403;28;20136;-78
2020/12/21 00:44:46;;;;;;;37.85;16.95;;;;;;;3.11;75.62;101196.44;5031110;28;20053;-77
2020/12/21 00:47:12;;;;;;;40.97;18.95;;;;;;;3.10;75.61;101199.00;5031088;28;20057;-76
2020/12/21 00:49:38;;;;;;;47.50;20.10;;;;;;;3.10;75.48;101194.69;5031651;28;20046;-77
2020/12/21 00:52:04;;;;;;;44.17;18.35;;;;;;;3.08;75.50;101196.41;5030696;28;20037;-77
2020/12/21 00:54:30;;;;;;;48.60;22.70;;;;;;;3.07;75.33;101199.84;5031084;28;20416;-77
2020/12/21 00:56:56;;;;;;;46.30;21.10;;;;;;;3.05;75.63;101204.16;5031167;28;20041;-77
2020/12/21 00:59:23;;;;;;;50.08;22.33;;;;;;;3.06;75.53;101209.34;5031446;28;20057;-78
2020/12/21 01:01:50;;;;;;;41.95;18.88;;;;;;;3.09;75.47;101213.69;5031294;28;20045;-77
2020/12/21 01:04:16;;;;;;;47.17;20.33;;;;;;;3.09;75.34;101211.09;5031543;28;20404;-77
2020/12/21 01:06:42;;;;;;;40.63;20.30;;;;;;;3.08;75.37;101209.38;5030854;28;20045;-76
2020/12/21 01:09:10;;;;;;;41.10;16.17;;;;;;;3.06;75.51;101201.59;5030807;28;20180;-78
2020/12/21 01:11:37;;;;;;;47.47;21.58;;;;;;;3.08;75.56;101201.59;5031278;28;20057;-78
2020/12/21 01:14:04;;;;;;;43.45;18.85;;;;;;;3.09;75.54;101202.47;5031152;28;20049;-77
2020/12/21 01:16:30;;;;;;;58.53;21.75;;;;;;;3.09;75.41;101199.88;5031008;28;20050;-77
2020/12/21 01:18:56;;;;;;;44.72;18.17;;;;;;;3.12;75.24;101197.28;5030763;28;20054;-78
2020/12/21 01:21:29;;;;;;;48.22;21.42;;;;;;;3.07;75.47;101192.09;5031080;28;20080;-78
2020/12/21 01:23:56;;;;;;;39.33;19.05;;;;;;;3.07;75.38;101189.50;5030929;28;20455;-78
2020/12/21 01:26:22;;;;;;;49.58;19.60;;;;;;;3.06;75.50;101182.59;5032853;28;20049;-76
2020/12/21 01:28:49;;;;;;;45.88;21.23;;;;;;;3.02;75.36;101180.84;5032244;28;20048;-76
2020/12/21 01:31:16;;;;;;;46.80;20.52;;;;;;;3.00;75.58;101182.56;5033390;28;20165;-76
2020/12/21 01:33:42;;;;;;;47.42;20.73;;;;;;;3.00;75.45;101175.66;5035816;28;20112;-76
2020/12/21 01:36:09;;;;;;;48.40;20.40;;;;;;;3.01;75.52;101189.47;5035862;28;20046;-76
2020/12/21 01:38:35;;;;;;;48.10;19.77;;;;;;;3.06;75.46;101187.75;5034859;28;20072;-76
2020/12/21 01:41:01;;;;;;;38.70;17.38;;;;;;;3.07;75.45;101189.50;5038412;28;20052;-76
2020/12/21 01:43:27;;;;;;;43.65;19.30;;;;;;;3.06;75.38;101182.59;5053606;28;20053;-75
2020/12/21 01:45:53;;;;;;;45.35;19.35;;;;;;;3.06;75.45;101177.41;5053599;28;20059;-75
2020/12/21 01:48:20;;;;;;;35.55;17.55;;;;;;;3.04;75.49;101168.75;5054129;28;20520;-77
2020/12/21 01:50:47;;;;;;;45.97;18.85;;;;;;;3.04;75.30;101174.81;5054357;28;20044;-77
2020/12/21 01:53:14;;;;;;;46.90;21.90;;;;;;;3.06;75.41;101178.28;5054101;28;20072;-77
2020/12/21 01:55:43;;;;;;;44.65;18.65;;;;;;;3.10;75.24;101173.97;5054144;28;20385;-76
2020/12/21 01:58:09;;;;;;;48.53;22.48;;;;;;;3.15;75.27;101184.38;5053757;28;20049;-76
2020/12/21 02:00:35;;;;;;;43.10;19.65;;;;;;;3.16;75.09;101178.34;5054121;28;20045;-76
2020/12/21 02:03:01;;;;;;;43.78;19.42;;;;;;;3.17;75.09;101180.94;5053852;28;20044;-75
2020/12/21 02:05:27;;;;;;;44.05;19.30;;;;;;;3.15;75.04;101172.31;5054082;28;20049;-76
2020/12/21 02:07:54;;;;;;;45.75;20.85;;;;;;;3.13;75.17;101173.16;5053861;28;20057;-75
2020/12/21 02:10:22;;;;;;;43.67;18.83;;;;;;;3.06;75.23;101177.41;5053603;28;20132;-76
2020/12/21 02:12:48;;;;;;;52.90;21.35;;;;;;;3.07;75.46;101184.31;5053765;28;20140;-76
2020/12/21 02:15:15;;;;;;;43.17;19.33;;;;;;;3.08;75.15;101191.22;5054157;28;20056;-76
2020/12/21 02:17:41;;;;;;;43.50;20.58;;;;;;;3.09;75.42;101192.09;5053708;28;20049;-72
2020/12/21 02:20:07;;;;;;;44.97;20.60;;;;;;;3.08;75.34;101178.28;5053705;28;20045;-73
2020/12/21 02:22:34;;;;;;;50.97;20.13;;;;;;;3.10;75.40;101173.09;5053836;28;20041;-76
2020/12/21 02:25:00;;;;;;;48.17;20.15;;;;;;;3.12;75.33;101177.44;5053214;28;20063;-76
2020/12/21 02:27:26;;;;;;;47.75;20.63;;;;;;;3.11;75.24;101172.25;5053760;28;20148;-76
2020/12/21 02:29:52;;;;;;;36.00;15.23;;;;;;;3.10;75.33;101166.19;5053606;28;20061;-76
2020/12/21 02:32:18;;;;;;;49.10;20.25;;;;;;;3.07;75.39;101168.78;5053674;28;20110;-76
2020/12/21 02:34:44;;;;;;;49.05;22.20;;;;;;;3.08;75.42;101165.31;5054727;28;20077;-75
2020/12/21 02:37:10;;;;;;;49.95;21.52;;;;;;;3.04;75.31;101171.34;5054521;28;20044;-76
2020/12/21 02:39:37;;;;;;;42.72;20.92;;;;;;;3.06;75.47;101172.22;5054591;28;20045;-73
2020/12/21 02:42:03;;;;;;;55.38;22.08;;;;;;;3.09;75.47;101166.19;5053783;28;20135;-73
2020/12/21 02:44:29;;;;;;;34.10;15.43;;;;;;;3.09;75.37;101167.06;5053925;28;20056;-73
2020/12/21 02:46:55;;;;;;;61.55;23.42;;;;;;;3.07;75.33;101168.78;5056051;28;20049;-74
2020/12/21 02:49:21;;;;;;;51.03;21.70;;;;;;;3.04;75.40;101158.38;5054350;28;20049;-74
2020/12/21 02:51:52;;;;;;;54.88;21.58;;;;;;;3.03;75.52;101161.84;5054282;28;20055;-74
2020/12/21 02:54:21;;;;;;;48.28;20.80;;;;;;;3.00;75.39;101164.41;5054215;28;20059;-73
2020/12/21 02:56:52;;;;;;;52.38;21.88;;;;;;;2.98;75.69;101158.34;5053827;28;20052;-74
2020/12/21 02:59:18;;;;;;;;;;;;;;;3.08;75.33;101162.72;5054623;28;20554;-73
2020/12/21 03:01:44;;;;;;;48.70;22.15;;;;;;;2.94;75.53;101159.19;5053823;28;19921;-73
2020/12/21 03:04:10;;;;;;;59.38;23.60;;;;;;;2.90;75.88;101165.19;5053999;28;20431;-73
2020/12/21 03:06:36;;;;;;;53.83;23.55;;;;;;;2.90;75.61;101158.28;5055979;28;20135;-74
2020/12/21 03:09:03;;;;;;;61.42;22.98;;;;;;;2.91;75.65;101156.56;5053967;28;20049;-72
2020/12/21 03:11:29;;;;;;;54.65;22.95;;;;;;;2.93;75.79;101149.69;5053683;28;20057;-72
2020/12/21 03:13:56;;;;;;;47.85;19.63;;;;;;;2.95;75.75;101147.97;5053686;28;20057;-73
2020/12/21 03:16:23;;;;;;;56.53;23.38;;;;;;;2.94;75.50;101151.44;5053490;28;20044;-73
2020/12/21 03:18:49;;;;;;;57.53;23.52;;;;;;;2.94;75.73;101147.13;5053654;28;20067;-73
2020/12/21 03:21:15;;;;;;;57.25;25.25;;;;;;;2.98;75.66;101145.41;5053326;28;20094;-73
2020/12/21 03:23:41;;;;;;;60.05;26.80;;;;;;;2.94;75.76;101152.28;5053550;28;20049;-73
2020/12/21 03:26:07;;;;;;;60.22;24.27;;;;;;;2.92;75.58;101146.25;5053491;28;20045;-74
2020/12/21 03:28:33;;;;;;;60.47;25.05;;;;;;;2.92;75.86;101138.47;5053480;28;20051;-75
2020/12/21 03:31:00;;;;;;;60.22;22.50;;;;;;;2.96;75.98;101136.75;5053121;28;20049;-75
2020/12/21 03:33:26;;;;;;;53.28;22.70;;;;;;;2.95;75.62;101147.97;5053672;28;20055;-74
2020/12/21 03:35:52;;;;;;;68.55;24.88;;;;;;;2.94;75.74;101141.06;5053372;28;20041;-75
2020/12/21 03:38:18;;;;;;;56.60;23.65;;;;;;;2.93;75.72;101137.63;5053206;28;20051;-74
2020/12/21 03:40:44;;;;;;;55.88;25.98;;;;;;;2.92;75.95;101142.78;5052980;28;20076;-73
2020/12/21 03:43:10;;;;;;;53.88;22.90;;;;;;;2.92;75.86;101142.78;5052695;28;20052;-74
2020/12/21 03:45:36;;;;;;;53.75;24.15;;;;;;;2.96;75.62;101144.53;5052871;28;20548;-74
2020/12/21 03:48:03;;;;;;;52.03;23.27;;;;;;;2.94;75.69;101141.94;5052979;28;20044;-74
2020/12/21 03:50:29;;;;;;;45.40;20.55;;;;;;;2.97;75.68;101143.69;5052759;28;20075;-75
2020/12/21 03:52:55;;;;;;;52.25;22.35;;;;;;;2.96;75.41;101150.59;5052036;28;20087;-74
2020/12/21 03:55:21;;;;;;;52.25;20.88;;;;;;;2.95;75.58;101154.03;5052761;28;20049;-74
2020/12/21 03:57:48;;;;;;;45.70;21.13;;;;;;;2.91;75.71;101146.19;5053138;28;20059;-74
2020/12/21 04:00:14;;;;;;;45.70;22.13;;;;;;;2.91;75.46;101146.19;5052861;28;20049;-70
2020/12/21 04:02:40;;;;;;;41.05;20.70;;;;;;;2.88;75.49;101147.06;5052634;28;20048;-70
2020/12/21 04:05:07;;;;;;;43.13;21.75;;;;;;;2.93;75.46;101134.16;5052799;28;20051;-71
2020/12/21 04:07:35;;;;;;;43.08;19.92;;;;;;;2.96;75.60;101139.34;5052461;28;20515;-71
2020/12/21 04:10:01;;;;;;;53.17;23.00;;;;;;;2.96;75.57;101139.34;5052532;28;20045;-70
2020/12/21 04:12:27;;;;;;;45.13;20.67;;;;;;;2.96;75.36;101134.19;5052627;28;20492;-70
2020/12/21 04:14:53;;;;;;;36.38;16.10;;;;;;;2.92;75.41;101125.53;5052736;28;20053;-70
2020/12/21 04:17:19;;;;;;;49.88;22.50;;;;;;;2.93;75.47;101131.56;5052544;28;20071;-70
2020/12/21 04:19:46;;;;;;;36.33;15.57;;;;;;;2.92;75.48;101135.88;5052812;28;20049;-70
2020/12/21 04:22:12;;;;;;;45.85;20.42;;;;;;;2.88;75.45;101126.34;5052256;28;20049;-70
2020/12/21 04:24:38;;;;;;;44.97;21.10;;;;;;;2.85;75.57;101123.72;5052669;28;20140;-71
2020/12/21 04:27:04;;;;;;;39.95;19.73;;;;;;;2.88;75.32;101133.22;5052275;28;20063;-70
2020/12/21 04:29:31;;;;;;;44.35;20.70;;;;;;;2.90;75.34;101131.53;5052680;28;20049;-70
2020/12/21 04:31:57;;;;;;;47.72;19.10;;;;;;;2.89;75.42;101132.38;5051207;28;20412;-71
2020/12/21 04:34:24;;;;;;;40.25;19.95;;;;;;;2.85;75.30;101121.13;5050468;28;20469;-72
2020/12/21 04:36:52;;;;;;;40.88;17.58;;;;;;;2.86;75.23;101127.19;5052117;28;20041;-72
2020/12/21 04:39:21;;;;;;;33.97;13.38;;;;;;;2.86;75.21;101124.59;5052430;28;20049;-73
2020/12/21 04:41:52;;;;;;;41.47;19.10;;;;;;;2.81;75.27;101139.25;5052238;28;20413;-73
2020/12/21 04:44:20;;;;;;;40.05;19.75;;;;;;;2.81;75.33;101128.88;5051686;28;20076;-74
2020/12/21 04:46:46;;;;;;;39.65;19.83;;;;;;;2.81;75.30;101129.75;5053258;28;20086;-73
2020/12/21 04:49:14;;;;;;;46.22;21.60;;;;;;;2.82;75.29;101125.44;5052072;28;20048;-72
2020/12/21 04:51:41;;;;;;;49.25;22.00;;;;;;;2.81;75.38;101128.88;5052129;28;20073;-72
2020/12/21 04:54:09;;;;;;;51.33;22.00;;;;;;;2.80;75.40;101120.25;5052087;28;20052;-74
2020/12/21 04:56:37;;;;;;;44.53;20.08;;;;;;;2.81;75.50;101121.09;5052064;28;20053;-71
2020/12/21 04:59:03;;;;;;;48.55;19.15;;;;;;;2.82;75.15;101120.25;5051966;28;20070;-75
2020/12/21 05:01:31;;;;;;;50.28;20.65;;;;;;;2.81;75.17;101128.88;5052148;28;20045;-75
2020/12/21 05:03:57;;;;;;;39.20;18.00;;;;;;;2.83;75.30;101119.41;5052133;28;20049;-76
2020/12/21 05:06:24;;;;;;;48.33;19.20;;;;;;;2.82;75.17;101113.34;5055064;28;20122;-74
2020/12/21 05:09:00;;;;;;;48.28;20.63;;;;;;;2.77;75.18;101117.63;5056102;28;20127;-74
2020/12/21 05:11:34;;;;;;;51.38;21.42;;;;;;;2.79;75.39;101121.09;5056224;28;20053;-74
2020/12/21 05:14:13;;;;;;;46.80;20.95;;;;;;;2.80;75.41;101121.97;5055951;28;20049;-73
2020/12/21 05:16:39;;;;;;;48.78;20.95;;;;;;;2.79;75.29;101121.09;5055750;28;20041;-74
2020/12/21 05:19:06;;;;;;;50.78;21.35;;;;;;;2.76;75.18;101126.25;5055725;28;20047;-74
2020/12/21 05:21:33;;;;;;;46.67;21.58;;;;;;;2.78;75.38;101123.69;5055963;28;20074;-74
2020/12/21 05:24:00;;;;;;;47.08;19.20;;;;;;;2.78;75.17;101113.31;5055850;28;20076;-73
2020/12/21 05:26:30;;;;;;;45.85;20.65;;;;;;;2.79;75.19;101104.69;5055619;28;20060;-73
2020/12/21 05:28:59;;;;;;;45.45;19.95;;;;;;;2.79;75.37;101107.28;5055889;28;20053;-73
2020/12/21 05:31:28;;;;;;;44.28;20.50;;;;;;;2.80;75.23;101107.28;5055743;28;20045;-72
2020/12/21 05:33:54;;;;;;;49.58;19.85;;;;;;;2.85;75.34;101112.50;5055457;28;20052;-72
2020/12/21 05:36:22;;;;;;;48.53;19.83;;;;;;;2.87;75.07;101110.78;5055377;28;20057;-73
2020/12/21 05:38:56;;;;;;;55.58;21.48;;;;;;;2.83;75.02;101111.63;5055483;28;20061;-73
2020/12/21 05:41:22;;;;;;;41.72;19.75;;;;;;;2.79;75.20;101104.69;5055507;28;20416;-73
2020/12/21 05:43:50;;;;;;;55.10;20.08;;;;;;;2.77;75.25;101116.78;5055070;28;20526;-73
2020/12/21 05:46:17;;;;;;;51.72;21.83;;;;;;;2.74;75.41;101123.66;5056779;28;20132;-73
2020/12/21 05:48:47;;;;;;;42.35;20.70;;;;;;;2.73;75.16;101116.75;5055525;28;20056;-73
2020/12/21 05:51:21;;;;;;;47.58;21.55;;;;;;;2.73;75.33;101111.56;5055443;28;20584;-74
2020/12/21 05:53:47;;;;;;;49.85;20.63;;;;;;;2.75;75.18;101109.84;5056141;28;20073;-73
2020/12/21 05:56:14;;;;;;;45.55;21.42;;;;;;;2.77;75.19;101103.81;5055136;28;20182;-74
2020/12/21 05:58:42;;;;;;;46.45;20.88;;;;;;;2.78;75.17;101108.16;5054883;28;20055;-74
2020/12/21 06:01:09;;;;;;;44.90;20.08;;;;;;;2.79;75.11;101104.69;5054449;28;20401;-74
2020/12/21 06:03:47;;;;;;;50.30;22.13;;;;;;;2.75;75.32;101107.28;5054748;28;20075;-75
2020/12/21 06:06:16;;;;;;;59.92;25.70;;;;;;;2.78;75.16;101119.38;5055021;28;20135;-74
2020/12/21 06:08:47;;;;;;;49.95;22.83;;;;;;;2.81;75.03;101121.09;5054987;28;20179;-73
2020/12/21 06:11:21;;;;;;;52.90;22.05;;;;;;;2.83;74.97;101121.97;5054532;28;20080;-75
2020/12/21 06:13:55;;;;;;;55.60;23.17;;;;;;;2.83;74.97;101119.41;5054555;28;20048;-75
2020/12/21 06:16:22;;;;;;;47.40;20.08;;;;;;;2.82;74.88;101120.25;5054418;28;20049;-73
2020/12/21 06:19:02;;;;;;;49.90;22.02;;;;;;;2.82;75.13;101122.84;5054826;28;20086;-74
2020/12/21 06:21:29;;;;;;;48.60;23.27;;;;;;;2.79;75.10;101121.09;5054741;28;20053;-74
2020/12/21 06:23:56;;;;;;;49.28;22.67;;;;;;;2.79;74.91;101115.06;5054655;28;20052;-73
2020/12/21 06:26:39;;;;;;;40.17;20.00;;;;;;;2.80;74.94;101117.66;5054059;28;20135;-75
2020/12/21 06:29:08;;;;;;;44.25;19.88;;;;;;;2.82;75.08;101118.53;5054455;28;20086;-75
2020/12/21 06:31:40;;;;;;;46.28;20.30;;;;;;;2.82;74.96;101112.47;5054428;28;20052;-75
2020/12/21 06:34:08;;;;;;;45.83;17.95;;;;;;;2.85;74.80;101120.28;5054376;28;20052;-74
2020/12/21 06:36:35;;;;;;;43.53;18.58;;;;;;;2.84;74.80;101113.34;5053490;28;20049;-70
2020/12/21 06:39:01;;;;;;;53.45;20.88;;;;;;;2.84;75.03;101118.53;5052342;28;20060;-70
2020/12/21 06:41:28;;;;;;;45.67;20.08;;;;;;;2.85;74.93;101120.28;5052124;28;20677;-70
2020/12/21 06:43:55;;;;;;;40.90;18.98;;;;;;;2.85;74.90;101122.84;5051591;28;20420;-72
2020/12/21 06:46:22;;;;;;;41.40;19.90;;;;;;;2.85;74.74;101120.28;5052269;28;20049;-73
2020/12/21 06:48:59;;;;;;;36.40;18.58;;;;;;;2.86;74.72;101124.59;5052363;28;20044;-71
2020/12/21 06:51:26;;;;;;;41.15;17.58;;;;;;;2.85;74.82;101118.53;5046809;28;20041;-73
2020/12/21 06:54:00;;;;;;;39.58;18.10;;;;;;;2.84;74.57;101121.13;5032437;28;20369;-70
2020/12/21 06:56:26;;;;;;;42.47;19.35;;;;;;;2.85;74.78;101121.13;5031941;28;20071;-70
2020/12/21 06:58:54;;;;;;;45.42;19.92;;;;;;;2.87;74.52;101124.59;5040161;28;20099;-70
2020/12/21 07:01:22;;;;;;;42.08;19.13;;;;;;;2.89;74.74;101129.78;5052433;28;20041;-71
2020/12/21 07:03:48;;;;;;;43.65;19.58;;;;;;;2.90;74.73;101131.53;5052648;28;20129;-71
2020/12/21 07:06:14;;;;;;;40.78;19.38;;;;;;;2.93;74.60;101139.34;5052466;28;20147;-70
2020/12/21 07:08:42;;;;;;;45.00;18.77;;;;;;;2.94;74.63;101138.47;5052085;28;20094;-71
2020/12/21 07:11:13;;;;;;;42.33;21.02;;;;;;;2.94;74.48;101141.06;5052494;28;20041;-69
2020/12/21 07:13:39;;;;;;;;;;;;;;;3.01;74.34;101142.84;5053022;28;20053;-72
2020/12/21 07:16:07;;;;;;;43.40;18.23;;;;;;;2.94;74.59;101135.88;5052542;28;19978;-71
2020/12/21 07:18:33;;;;;;;30.98;14.43;;;;;;;2.96;74.49;101144.53;5052254;28;20484;-71
2020/12/21 07:20:59;;;;;;;46.60;19.20;;;;;;;2.95;74.45;101137.63;5052028;28;20056;-71
2020/12/21 07:23:26;;;;;;;46.38;20.13;;;;;;;2.96;74.37;101142.81;5051746;28;20136;-71
2020/12/21 07:25:53;;;;;;;40.85;18.73;;;;;;;2.99;74.50;101145.41;5052305;28;20063;-69
2020/12/21 07:28:23;;;;;;;39.78;19.27;;;;;;;3.02;74.38;101145.44;5046151;28;20044;-70
2020/12/21 07:30:49;;;;;;;35.50;16.90;;;;;;;3.03;74.45;101136.81;5036547;28;20046;-69
2020/12/21 07:33:15;;;;;;;43.92;18.35;;;;;;;3.06;74.45;101142.00;5035456;28;20041;-70
2020/12/21 07:35:41;;;;;;;45.00;19.35;;;;;;;3.09;74.37;101148.06;5045104;28;20412;-70
2020/12/21 07:38:16;;;;;;;44.78;21.42;;;;;;;3.11;74.33;101147.19;5051289;28;20074;-70
2020/12/21 07:40:44;;;;;;;44.22;20.40;;;;;;;3.13;74.07;101139.47;5052183;28;20370;-71
2020/12/21 07:43:17;;;;;;;43.30;21.98;;;;;;;3.11;74.29;101146.34;5051536;28;20059;-70
2020/12/21 07:45:46;;;;;;;34.08;15.60;;;;;;;3.12;74.34;101146.34;5039862;28;20136;-69
2020/12/21 07:48:12;;;;;;;44.63;19.90;;;;;;;3.11;74.35;101142.03;5038495;28;20139;-69
2020/12/21 07:50:40;;;;;;;40.85;21.10;;;;;;;3.11;74.20;101139.44;5041158;28;20496;-69
2020/12/21 07:53:06;;;;;;;42.05;20.23;;;;;;;3.12;74.27;101148.06;5040162;28;20038;-70
2020/12/21 07:55:33;;;;;;;39.00;16.73;;;;;;;3.14;74.18;101147.25;5039588;28;20053;-70
2020/12/21 07:57:59;;;;;;;42.38;21.33;;;;;;;3.14;74.13;101148.97;5040572;28;20044;-69
2020/12/21 08:00:26;;;;;;;49.78;21.63;;;;;;;3.15;74.18;101148.97;5044273;28;20058;-70
2020/12/21 08:02:59;;;;;;;43.80;20.80;;;;;;;3.18;74.03;101154.19;5030902;28;20041;-69
2020/12/21 08:05:25;;;;;;;51.42;23.42;;;;;;;3.17;73.88;101139.50;5035299;28;20051;-69
2020/12/21 08:07:51;;;;;;;50.05;21.80;;;;;;;3.17;74.03;101139.50;5045194;28;20390;-71
2020/12/21 08:10:18;;;;;;;44.47;21.83;;;;;;;3.17;74.02;101136.03;5049800;28;20049;-70
2020/12/21 08:12:45;;;;;;;43.47;22.13;;;;;;;3.20;74.15;101141.22;5051284;28;20045;-69
2020/12/21 08:15:14;;;;;;;51.08;23.25;;;;;;;3.22;73.91;101147.28;5050713;28;20053;-70
2020/12/21 08:17:45;;;;;;;56.25;24.73;;;;;;;3.21;74.07;101146.41;5051242;28;20045;-71
2020/12/21 08:20:12;;;;;;;51.63;22.52;;;;;;;3.22;74.00;101140.38;5051024;28;20290;-71
2020/12/21 08:22:38;;;;;;;48.70;22.38;;;;;;;3.24;74.01;101135.19;5051161;28;20051;-70
2020/12/21 08:25:06;;;;;;;46.47;21.80;;;;;;;3.26;73.82;101134.34;5050731;28;20041;-70
2020/12/21 08:27:33;;;;;;;49.55;20.95;;;;;;;3.29;74.01;101131.78;5050671;28;20094;-67
2020/12/21 08:30:09;;;;;;;42.65;21.42;;;;;;;3.29;74.04;101131.78;5051552;28;20122;-69
2020/12/21 08:32:36;;;;;;;49.47;22.70;;;;;;;3.32;73.84;101134.38;5051005;28;20072;-70
2020/12/21 08:35:03;;;;;;;48.33;22.15;;;;;;;3.31;74.04;101132.63;5050777;28;20475;-69
2020/12/21 08:37:33;;;;;;;53.72;22.38;;;;;;;3.34;73.79;101137.00;5051317;28;20052;-68
2020/12/21 08:40:11;;;;;;;49.60;22.85;;;;;;;3.38;73.87;101130.09;5051392;28;20052;-67
2020/12/21 08:42:37;;;;;;;42.42;20.98;;;;;;;3.46;73.71;101138.78;5050950;28;20044;-69
2020/12/21 08:45:08;;;;;;;48.20;20.95;;;;;;;3.50;73.71;101145.69;5049869;28;20147;-70
2020/12/21 08:47:34;;;;;;;43.08;22.08;;;;;;;3.57;73.57;101143.16;5044827;28;20045;-68
2020/12/21 08:50:11;;;;;;;48.78;23.00;;;;;;;3.57;73.54;101139.69;5045315;28;20073;-75
2020/12/21 08:52:37;;;;;;;49.63;22.85;;;;;;;3.57;73.32;101139.69;5040363;28;20130;-68
2020/12/21 08:55:05;;;;;;;51.60;24.02;;;;;;;3.60;73.47;101140.56;5037794;28;20041;-70
2020/12/21 08:57:31;;;;;;;41.17;21.25;;;;;;;3.63;73.26;101140.59;5037558;28;20411;-69
2020/12/21 08:59:58;;;;;;;45.60;23.17;;;;;;;3.65;73.30;101143.19;5042172;28;20080;-70
2020/12/21 09:02:24;;;;;;;49.28;25.75;;;;;;;3.67;73.27;101141.47;5046160;28;20045;-69
2020/12/21 09:04:50;;;;;;;34.88;16.13;;;;;;;3.71;73.29;101143.19;5031846;28;20053;-67
2020/12/21 09:07:17;;;;;;;54.05;24.02;;;;;;;3.74;73.37;101143.19;5034403;28;20132;-74
2020/12/21 09:09:43;;;;;;;48.03;23.98;;;;;;;3.78;73.32;101149.28;5031131;28;20111;-74
2020/12/21 09:12:10;;;;;;;45.72;21.65;;;;;;;3.83;73.18;101148.44;5033120;28;20125;-75
2020/12/21 09:14:36;;;;;;;49.78;26.27;;;;;;;3.88;72.97;101145.84;5042517;28;20041;-75
2020/12/21 09:17:03;;;;;;;48.40;23.83;;;;;;;3.91;73.00;101138.94;5040641;28;20095;-75
2020/12/21 09:19:31;;;;;;;53.60;25.00;;;;;;;3.91;72.96;101138.94;5049830;28;20485;-74
2020/12/21 09:21:58;;;;;;;45.90;24.38;;;;;;;3.96;72.93;101131.19;5050642;28;20053;-74
2020/12/21 09:24:25;;;;;;;54.80;25.20;;;;;;;3.96;72.98;101133.78;5049636;28;20135;-76
2020/12/21 09:26:52;;;;;;;55.97;27.83;;;;;;;4.00;72.90;101139.84;5041046;28;20357;-75
2020/12/21 09:29:18;;;;;;;59.42;26.15;;;;;;;4.04;72.97;101131.22;5033622;28;20053;-73
2020/12/21 09:31:44;;;;;;;57.67;26.70;;;;;;;4.06;72.89;101122.56;5030831;28;20092;-75
2020/12/21 09:34:11;;;;;;;49.40;24.23;;;;;;;4.12;72.65;101117.38;5036201;28;20049;-74
2020/12/21 09:36:38;;;;;;;48.45;24.42;;;;;;;4.19;72.55;101113.09;5040768;28;20052;-74
2020/12/21 09:39:05;;;;;;;49.45;24.55;;;;;;;4.25;72.30;101113.06;5034421;28;20063;-76
2020/12/21 09:41:34;;;;;;;49.65;23.92;;;;;;;4.25;72.43;101119.13;5042742;28;20041;-75
2020/12/21 09:44:01;;;;;;;41.22;21.42;;;;;;;4.24;71.87;101121.72;5044356;28;20067;-73
2020/12/21 09:46:28;;;;;;;44.97;22.55;;;;;;;4.22;72.45;101119.13;5048554;28;20036;-74
2020/12/21 09:48:54;;;;;;;43.25;21.00;;;;;;;4.26;72.29;101117.41;5050573;28;20056;-75
2020/12/21 09:51:21;;;;;;;39.80;20.08;;;;;;;4.30;72.05;101100.97;5051741;28;20103;-74
2020/12/21 09:53:48;;;;;;;45.92;24.88;;;;;;;4.36;71.81;101090.56;5053988;28;20837;-71
2020/12/21 09:56:16;;;;;;;44.05;24.67;;;;;;;4.40;71.92;101092.34;5053818;28;20504;-73
2020/12/21 09:58:45;;;;;;;40.33;20.10;;;;;;;4.41;71.60;101099.25;5053652;28;20049;-75
2020/12/21 10:01:12;;;;;;;41.53;21.02;;;;;;;4.38;71.86;101086.28;5051105;28;20049;-75
2020/12/21 10:03:39;;;;;;;42.92;19.92;;;;;;;4.41;71.61;101094.06;5054100;28;20059;-74
2020/12/21 10:06:07;;;;;;;44.15;22.80;;;;;;;4.47;71.49;101093.19;5053487;28;20067;-75
2020/12/21 10:08:33;;;;;;;39.67;21.83;;;;;;;4.46;71.35;101089.72;5053727;28;20425;-75
2020/12/21 10:11:08;;;;;;;44.83;24.95;;;;;;;4.47;71.36;101088.84;5054139;28;20052;-74
2020/12/21 10:13:35;;;;;;;47.10;25.45;;;;;;;4.49;71.47;101092.31;5053270;28;20072;-75
2020/12/21 10:16:07;;;;;;;47.70;23.25;;;;;;;4.46;71.55;101083.66;5041177;28;20052;-78
2020/12/21 10:18:34;;;;;;;40.80;22.10;;;;;;;4.43;71.33;101083.69;5039043;28;20133;-73
2020/12/21 10:21:02;;;;;;;41.80;22.30;;;;;;;4.41;71.34;101094.06;5053439;28;20049;-75
2020/12/21 10:23:29;;;;;;;46.28;20.50;;;;;;;4.42;71.38;101082.81;5057445;28;20386;-76
2020/12/21 10:26:00;;;;;;;40.30;20.95;;;;;;;4.40;71.42;101084.53;5042803;28;20049;-76
2020/12/21 10:28:27;;;;;;;48.75;24.33;;;;;;;4.43;71.45;101078.47;5035862;28;20041;-75
2020/12/21 10:30:54;;;;;;;54.80;26.08;;;;;;;4.45;71.52;101074.16;5033581;28;20264;-76
2020/12/21 10:33:24;;;;;;;49.08;23.67;;;;;;;4.50;71.39;101081.06;5032255;28;20041;-76
2020/12/21 10:35:50;;;;;;;50.33;26.08;;;;;;;4.49;71.29;101078.47;5031123;28;20123;-75
2020/12/21 10:38:16;;;;;;;56.67;27.85;;;;;;;4.50;71.24;101073.28;5030969;28;20059;-74
2020/12/21 10:40:42;;;;;;;54.92;27.58;;;;;;;4.48;71.23;101071.56;5031647;28;20131;-76
2020/12/21 10:43:09;;;;;;;51.38;26.92;;;;;;;4.49;71.32;101079.34;5031970;28;20574;-75
2020/12/21 10:45:38;;;;;;;48.83;23.08;;;;;;;4.52;71.21;101068.94;5042539;28;20045;-74
2020/12/21 10:48:04;;;;;;;54.08;27.10;;;;;;;4.50;71.16;101065.47;5040807;28;20420;-75
2020/12/21 10:50:31;;;;;;;55.88;27.80;;;;;;;4.53;70.83;101068.06;5044579;28;20087;-74
2020/12/21 10:52:58;;;;;;;54.05;29.23;;;;;;;4.54;70.99;101069.81;5051975;28;20055;-74
2020/12/21 10:55:24;;;;;;;46.58;22.55;;;;;;;4.58;70.90;101062.88;5044597;28;20049;-76
2020/12/21 10:57:50;;;;;;;44.70;22.60;;;;;;;4.58;71.07;101073.25;5043940;28;20440;-76
2020/12/21 11:00:16;;;;;;;46.10;23.30;;;;;;;4.57;71.05;101071.53;5040586;28;20041;-77
2020/12/21 11:02:42;;;;;;;53.63;25.80;;;;;;;4.57;71.17;101066.34;5046000;28;20135;-75
2020/12/21 11:05:09;;;;;;;47.00;25.83;;;;;;;4.64;70.92;101067.22;5051758;28;20391;-75
2020/12/21 11:07:36;;;;;;;56.70;26.80;;;;;;;4.65;70.97;101059.41;5049658;28;20124;-74
2020/12/21 11:10:04;;;;;;;53.67;26.63;;;;;;;4.67;70.86;101057.69;5049920;28;20045;-74
2020/12/21 11:12:30;;;;;;;45.05;25.05;;;;;;;4.66;70.88;101057.69;5034509;28;20057;-74
2020/12/21 11:14:56;;;;;;;49.88;23.77;;;;;;;4.70;70.83;101051.63;5031888;28;20207;-75
2020/12/21 11:17:22;;;;;;;42.30;22.33;;;;;;;4.73;70.83;101051.59;5042861;28;20053;-75